Mount Tom, Massachusetts
Current Conditions -  °F | °C
As of 3:02 AM on Friday 28 Nov 2014 (Local Time) from KBAF Reporting Station
Overcast Overcast  
Wind Chill: 29°   Ceiling: 6000
Heat Index: 29°   Visibility: 10mi
Dew Point: 27°   Wind: 0mph
Humidity: 92%   Direction: NA
Pressure: 30.02"   Gusts: NA
Location:  42.2952°N, 72.7431°W
Report Text: KBAF 280802Z 00000KT 10SM FEW004 OVC060 M02/M03 A3002 RMK AO2 T10171028
Loading
Personal Weather Stations






























Interactive Weather Map New forecast layout! Learn more

10-Day Weather Forecast

Advertisements
Track Severe Weather on mobile